sensor_id;sensor_type;location;lat;lon;timestamp;pressure;altitude;pressure_sealevel;temperature;humidity
6136;BME280;24008;42.664;23.372;2023-02-04T00:02:00;94275.31;;;-1.29;93.29
6136;BME280;24008;42.664;23.372;2023-02-04T00:04:27;94559.25;;;0.51;94.84
6136;BME280;24008;42.664;23.372;2023-02-04T00:06:54;94555.41;;;0.45;95.47
6136;BME280;24008;42.664;23.372;2023-02-04T00:09:20;94548.59;;;0.47;96.00
6136;BME280;24008;42.664;23.372;2023-02-04T00:11:49;94515.41;;;0.11;96.81
6136;BME280;24008;42.664;23.372;2023-02-04T00:14:15;94510.00;;;0.32;96.80
6136;BME280;24008;42.664;23.372;2023-02-04T00:16:42;94509.13;;;0.33;97.68
6136;BME280;24008;42.664;23.372;2023-02-04T00:19:09;94533.22;;;0.52;97.94
6136;BME280;24008;42.664;23.372;2023-02-04T00:21:36;94527.47;;;0.50;98.33
6136;BME280;24008;42.664;23.372;2023-02-04T00:24:03;94527.81;;;0.44;98.89
6136;BME280;24008;42.664;23.372;2023-02-04T00:26:30;94536.34;;;0.41;98.90
6136;BME280;24008;42.664;23.372;2023-02-04T00:28:58;94536.91;;;0.46;99.15
6136;BME280;24008;42.664;23.372;2023-02-04T00:31:24;94500.78;;;0.33;99.00
6136;BME280;24008;42.664;23.372;2023-02-04T00:33:51;94526.66;;;0.49;99.15
6136;BME280;24008;42.664;23.372;2023-02-04T00:36:18;94517.41;;;0.50;99.53
6136;BME280;24008;42.664;23.372;2023-02-04T00:38:45;94521.81;;;0.46;99.35
6136;BME280;24008;42.664;23.372;2023-02-04T00:41:11;94313.91;;;-1.00;99.41
6136;BME280;24008;42.664;23.372;2023-02-04T00:43:38;94491.91;;;0.12;99.78
6136;BME280;24008;42.664;23.372;2023-02-04T00:46:07;94317.69;;;-0.93;100.00
6136;BME280;24008;42.664;23.372;2023-02-04T00:48:33;94475.38;;;0.08;100.00
6136;BME280;24008;42.664;23.372;2023-02-04T00:51:01;94354.06;;;-0.70;100.00
6136;BME280;24008;42.664;23.372;2023-02-04T00:53:30;94517.47;;;0.34;100.00
6136;BME280;24008;42.664;23.372;2023-02-04T00:55:57;94513.06;;;0.38;100.00
6136;BME280;24008;42.664;23.372;2023-02-04T00:58:24;94512.09;;;0.40;100.00
6136;BME280;24008;42.664;23.372;2023-02-04T01:00:51;94503.81;;;0.38;100.00
6136;BME280;24008;42.664;23.372;2023-02-04T01:03:19;94457.50;;;0.12;100.00
6136;BME280;24008;42.664;23.372;2023-02-04T01:05:46;94478.22;;;0.31;100.00
6136;BME280;24008;42.664;23.372;2023-02-04T01:08:13;94493.44;;;0.44;100.00
6136;BME280;24008;42.664;23.372;2023-02-04T01:10:41;94474.13;;;0.45;100.00
6136;BME280;24008;42.664;23.372;2023-02-04T01:13:07;94467.69;;;0.25;99.99
6136;BME280;24008;42.664;23.372;2023-02-04T01:15:34;94474.38;;;0.40;100.00
6136;BME280;24008;42.664;23.372;2023-02-04T01:18:01;94348.94;;;-0.37;100.00
6136;BME280;24008;42.664;23.372;2023-02-04T01:20:30;94482.09;;;0.37;100.00
6136;BME280;24008;42.664;23.372;2023-02-04T01:22:56;94464.31;;;0.40;100.00
6136;BME280;24008;42.664;23.372;2023-02-04T01:25:23;94431.00;;;0.22;100.00
6136;BME280;24008;42.664;23.372;2023-02-04T01:27:50;94469.75;;;0.48;100.00
6136;BME280;24008;42.664;23.372;2023-02-04T01:30:17;94411.22;;;0.16;100.00
6136;BME280;24008;42.664;23.372;2023-02-04T01:32:43;94371.06;;;0.00;99.80
6136;BME280;24008;42.664;23.372;2023-02-04T01:35:10;94438.66;;;0.49;100.00
6136;BME280;24008;42.664;23.372;2023-02-04T01:37:39;94446.13;;;0.51;99.97
6136;BME280;24008;42.664;23.372;2023-02-04T01:40:06;94437.25;;;0.59;99.75
6136;BME280;24008;42.664;23.372;2023-02-04T01:42:33;94432.91;;;0.61;99.16
6136;BME280;24008;42.664;23.372;2023-02-04T01:45:00;94427.19;;;0.59;98.81
6136;BME280;24008;42.664;23.372;2023-02-04T01:47:30;94422.50;;;0.53;98.33
6136;BME280;24008;42.664;23.372;2023-02-04T01:49:57;94373.44;;;0.18;98.04
6136;BME280;24008;42.664;23.372;2023-02-04T01:52:24;94419.47;;;0.48;97.85
6136;BME280;24008;42.664;23.372;2023-02-04T01:54:52;94421.06;;;0.49;98.10
6136;BME280;24008;42.664;23.372;2023-02-04T01:57:19;94421.78;;;0.51;98.65
6136;BME280;24008;42.664;23.372;2023-02-04T01:59:46;94366.97;;;0.14;98.00
6136;BME280;24008;42.664;23.372;2023-02-04T02:02:43;94262.28;;;-0.44;97.75
6136;BME280;24008;42.664;23.372;2023-02-04T02:05:13;94414.72;;;0.58;97.09
6136;BME280;24008;42.664;23.372;2023-02-04T02:07:42;94403.84;;;0.57;96.72
6136;BME280;24008;42.664;23.372;2023-02-04T02:10:11;94443.78;;;0.62;96.22
6136;BME280;24008;42.664;23.372;2023-02-04T02:12:39;94423.78;;;0.60;95.94
6136;BME280;24008;42.664;23.372;2023-02-04T02:15:08;94384.59;;;0.42;95.18
6136;BME280;24008;42.664;23.372;2023-02-04T02:17:35;94400.88;;;0.65;95.56
6136;BME280;24008;42.664;23.372;2023-02-04T02:20:05;94404.28;;;0.64;95.26
6136;BME280;24008;42.664;23.372;2023-02-04T02:22:35;94378.88;;;0.54;94.79
6136;BME280;24008;42.664;23.372;2023-02-04T02:25:09;94353.00;;;0.38;94.19
6136;BME280;24008;42.664;23.372;2023-02-04T02:27:36;94363.94;;;0.51;93.97
6136;BME280;24008;42.664;23.372;2023-02-04T02:30:04;94371.31;;;0.68;93.64
6136;BME280;24008;42.664;23.372;2023-02-04T02:32:32;94366.56;;;0.64;93.53
6136;BME280;24008;42.664;23.372;2023-02-04T02:34:59;94312.44;;;0.44;92.61
6136;BME280;24008;42.664;23.372;2023-02-04T02:37:26;94303.28;;;0.43;92.51
6136;BME280;24008;42.664;23.372;2023-02-04T02:39:53;94324.63;;;0.64;92.50
6136;BME280;24008;42.664;23.372;2023-02-04T02:42:21;94325.72;;;0.60;92.37
6136;BME280;24008;42.664;23.372;2023-02-04T02:44:49;94284.44;;;0.36;92.40
6136;BME280;24008;42.664;23.372;2023-02-04T02:47:19;94281.81;;;0.38;92.31
6136;BME280;24008;42.664;23.372;2023-02-04T02:49:48;94274.38;;;0.36;92.13
6136;BME280;24008;42.664;23.372;2023-02-04T02:52:16;94314.31;;;0.55;92.54
6136;BME280;24008;42.664;23.372;2023-02-04T02:54:43;94315.13;;;0.55;92.14
6136;BME280;24008;42.664;23.372;2023-02-04T02:57:12;94252.09;;;0.16;92.07
6136;BME280;24008;42.664;23.372;2023-02-04T02:59:41;94255.53;;;0.15;92.64
6136;BME280;24008;42.664;23.372;2023-02-04T03:02:09;94202.41;;;-0.22;92.31
6136;BME280;24008;42.664;23.372;2023-02-04T03:04:40;94320.50;;;0.49;92.52
6136;BME280;24008;42.664;23.372;2023-02-04T03:07:08;94294.09;;;0.28;92.52
6136;BME280;24008;42.664;23.372;2023-02-04T03:09:36;94318.91;;;0.48;92.90
6136;BME280;24008;42.664;23.372;2023-02-04T03:12:03;94313.31;;;0.43;92.85
6136;BME280;24008;42.664;23.372;2023-02-04T03:14:32;94314.03;;;0.45;93.31
6136;BME280;24008;42.664;23.372;2023-02-04T03:17:01;94332.44;;;0.60;92.99
6136;BME280;24008;42.664;23.372;2023-02-04T03:19:29;94332.53;;;0.58;92.27
6136;BME280;24008;42.664;23.372;2023-02-04T03:21:57;94255.09;;;0.22;92.66
6136;BME280;24008;42.664;23.372;2023-02-04T03:24:24;94292.13;;;0.47;91.92
6136;BME280;24008;42.664;23.372;2023-02-04T03:26:51;94307.34;;;0.72;91.28
6136;BME280;24008;42.664;23.372;2023-02-04T03:29:17;94304.56;;;0.77;90.79
6136;BME280;24008;42.664;23.372;2023-02-04T03:31:44;94310.41;;;0.78;89.82
6136;BME280;24008;42.664;23.372;2023-02-04T03:34:12;94271.47;;;0.56;90.10
6136;BME280;24008;42.664;23.372;2023-02-04T03:36:39;94295.03;;;0.82;89.90
6136;BME280;24008;42.664;23.372;2023-02-04T03:39:06;94300.41;;;0.90;89.17
6136;BME280;24008;42.664;23.372;2023-02-04T03:41:32;94296.38;;;0.88;89.20
6136;BME280;24008;42.664;23.372;2023-02-04T03:43:59;94307.88;;;0.92;89.27
6136;BME280;24008;42.664;23.372;2023-02-04T03:46:26;94287.34;;;0.98;89.42
6136;BME280;24008;42.664;23.372;2023-02-04T03:48:53;94290.59;;;1.00;89.00
6136;BME280;24008;42.664;23.372;2023-02-04T03:51:21;94260.72;;;0.81;88.58
6136;BME280;24008;42.664;23.372;2023-02-04T03:53:47;94285.38;;;1.03;88.35
6136;BME280;24008;42.664;23.372;2023-02-04T03:56:14;94258.13;;;0.83;87.96
6136;BME280;24008;42.664;23.372;2023-02-04T03:58:41;94238.69;;;0.85;87.44
6136;BME280;24008;42.664;23.372;2023-02-04T04:01:08;94268.66;;;1.02;87.41
6136;BME280;24008;42.664;23.372;2023-02-04T04:03:34;94237.50;;;0.90;87.41
6136;BME280;24008;42.664;23.372;2023-02-04T04:06:01;94239.00;;;1.07;87.78
6136;BME280;24008;42.664;23.372;2023-02-04T04:08:32;94246.53;;;1.07;87.53
6136;BME280;24008;42.664;23.372;2023-02-04T04:10:58;94237.16;;;1.09;87.38
6136;BME280;24008;42.664;23.372;2023-02-04T04:13:25;94232.84;;;1.11;87.08
6136;BME280;24008;42.664;23.372;2023-02-04T04:15:52;94215.28;;;0.97;87.29
6136;BME280;24008;42.664;23.372;2023-02-04T04:18:19;94216.81;;;0.99;87.13
6136;BME280;24008;42.664;23.372;2023-02-04T04:20:45;94117.47;;;0.26;87.60
6136;BME280;24008;42.664;23.372;2023-02-04T04:23:12;94224.75;;;0.93;87.67
6136;BME280;24008;42.664;23.372;2023-02-04T04:25:40;94220.09;;;0.87;87.95
6136;BME280;24008;42.664;23.372;2023-02-04T04:28:07;94212.00;;;0.69;88.89
6136;BME280;24008;42.664;23.372;2023-02-04T04:30:33;94225.34;;;0.84;89.30
6136;BME280;24008;42.664;23.372;2023-02-04T04:33:00;94197.34;;;0.62;89.73
6136;BME280;24008;42.664;23.372;2023-02-04T04:35:27;94247.84;;;0.86;90.00
6136;BME280;24008;42.664;23.372;2023-02-04T04:37:54;94195.72;;;0.48;90.00
6136;BME280;24008;42.664;23.372;2023-02-04T04:40:20;94248.56;;;0.88;90.47
6136;BME280;24008;42.664;23.372;2023-02-04T04:42:48;94225.47;;;0.68;90.34
6136;BME280;24008;42.664;23.372;2023-02-04T04:45:15;94247.84;;;0.86;90.49
6136;BME280;24008;42.664;23.372;2023-02-04T04:47:42;94184.78;;;0.35;90.13
6136;BME280;24008;42.664;23.372;2023-02-04T04:50:09;94240.56;;;0.68;90.66
6136;BME280;24008;42.664;23.372;2023-02-04T04:52:35;94267.97;;;0.86;90.50
6136;BME280;24008;42.664;23.372;2023-02-04T04:55:03;94233.91;;;0.67;90.80
6136;BME280;24008;42.664;23.372;2023-02-04T04:57:29;94270.22;;;0.90;90.52
6136;BME280;24008;42.664;23.372;2023-02-04T04:59:58;94259.34;;;0.90;91.12
6136;BME280;24008;42.664;23.372;2023-02-04T05:02:24;94268.50;;;0.91;91.03
6136;BME280;24008;42.664;23.372;2023-02-04T05:04:51;94258.34;;;0.92;91.37
6136;BME280;24008;42.664;23.372;2023-02-04T05:07:18;94209.50;;;0.55;91.51
6136;BME280;24008;42.664;23.372;2023-02-04T05:09:44;94242.31;;;0.81;92.11
6136;BME280;24008;42.664;23.372;2023-02-04T05:12:11;94247.44;;;0.79;92.80
6136;BME280;24008;42.664;23.372;2023-02-04T05:14:38;94258.63;;;0.88;93.61
6136;BME280;24008;42.664;23.372;2023-02-04T05:17:06;94272.19;;;0.85;94.80
6136;BME280;24008;42.664;23.372;2023-02-04T05:19:33;94281.84;;;0.79;95.82
6136;BME280;24008;42.664;23.372;2023-02-04T05:21:59;94283.00;;;0.73;97.01
6136;BME280;24008;42.664;23.372;2023-02-04T05:24:26;94236.69;;;0.36;98.23
6136;BME280;24008;42.664;23.372;2023-02-04T05:26:53;94248.13;;;0.54;99.54
6136;BME280;24008;42.664;23.372;2023-02-04T05:29:20;94275.31;;;0.62;100.00
6136;BME280;24008;42.664;23.372;2023-02-04T05:31:46;94270.66;;;0.56;100.00
6136;BME280;24008;42.664;23.372;2023-02-04T05:34:15;94308.06;;;0.75;100.00
6136;BME280;24008;42.664;23.372;2023-02-04T05:36:41;94263.75;;;0.59;100.00
6136;BME280;24008;42.664;23.372;2023-02-04T05:39:08;94260.44;;;0.86;100.00
6136;BME280;24008;42.664;23.372;2023-02-04T05:41:35;94289.06;;;1.24;100.00
6136;BME280;24008;42.664;23.372;2023-02-04T05:44:02;94217.63;;;1.00;100.00
6136;BME280;24008;42.664;23.372;2023-02-04T05:46:28;94296.66;;;1.76;97.01
6136;BME280;24008;42.664;23.372;2023-02-04T05:48:55;94215.81;;;1.41;94.16
6136;BME280;24008;42.664;23.372;2023-02-04T05:51:23;94249.69;;;1.75;91.60
6136;BME280;24008;42.664;23.372;2023-02-04T05:53:50;94295.16;;;2.25;90.75
6136;BME280;24008;42.664;23.372;2023-02-04T05:56:17;94297.25;;;2.31;89.83
6136;BME280;24008;42.664;23.372;2023-02-04T05:58:43;94277.69;;;2.34;87.93
6136;BME280;24008;42.664;23.372;2023-02-04T06:01:11;94239.28;;;2.18;86.98
6136;BME280;24008;42.664;23.372;2023-02-04T06:03:38;94285.88;;;2.38;85.58
6136;BME280;24008;42.664;23.372;2023-02-04T06:06:05;94294.16;;;2.40;84.96
6136;BME280;24008;42.664;23.372;2023-02-04T06:08:33;94282.34;;;2.40;84.00
6136;BME280;24008;42.664;23.372;2023-02-04T06:11:00;94286.25;;;2.44;83.60
6136;BME280;24008;42.664;23.372;2023-02-04T06:13:26;94291.47;;;2.54;83.52
6136;BME280;24008;42.664;23.372;2023-02-04T06:15:53;94275.75;;;2.63;82.92
6136;BME280;24008;42.664;23.372;2023-02-04T06:18:20;94291.16;;;2.71;81.42
6136;BME280;24008;42.664;23.372;2023-02-04T06:20:46;94288.00;;;2.80;81.67
6136;BME280;24008;42.664;23.372;2023-02-04T06:23:13;94246.94;;;2.66;80.16
6136;BME280;24008;42.664;23.372;2023-02-04T06:25:41;94248.16;;;2.73;79.01
6136;BME280;24008;42.664;23.372;2023-02-04T06:28:08;94292.88;;;3.07;78.88
6136;BME280;24008;42.664;23.372;2023-02-04T06:30:35;94296.47;;;3.16;78.44
6136;BME280;24008;42.664;23.372;2023-02-04T06:33:02;94261.41;;;3.00;77.87
6136;BME280;24008;42.664;23.372;2023-02-04T06:35:29;94165.28;;;2.43;77.25
6136;BME280;24008;42.664;23.372;2023-02-04T06:37:55;94291.81;;;3.22;77.17
6136;BME280;24008;42.664;23.372;2023-02-04T06:40:22;94298.38;;;3.25;75.87
6136;BME280;24008;42.664;23.372;2023-02-04T06:42:50;94252.31;;;2.98;76.16
6136;BME280;24008;42.664;23.372;2023-02-04T06:45:17;94294.22;;;3.24;75.96
6136;BME280;24008;42.664;23.372;2023-02-04T06:47:43;94292.38;;;3.26;75.19
6136;BME280;24008;42.664;23.372;2023-02-04T06:50:10;94294.28;;;3.35;75.69
6136;BME280;24008;42.664;23.372;2023-02-04T06:52:43;94289.69;;;3.40;74.11
6136;BME280;24008;42.664;23.372;2023-02-04T06:55:09;94195.94;;;2.86;73.97
6136;BME280;24008;42.664;23.372;2023-02-04T06:57:36;94240.38;;;3.23;73.07
6136;BME280;24008;42.664;23.372;2023-02-04T07:00:05;94271.84;;;3.54;72.07
6136;BME280;24008;42.664;23.372;2023-02-04T07:02:33;94249.72;;;3.34;71.82
6136;BME280;24008;42.664;23.372;2023-02-04T07:05:01;94265.75;;;3.57;71.56
6136;BME280;24008;42.664;23.372;2023-02-04T07:07:27;94266.13;;;3.63;71.34
6136;BME280;24008;42.664;23.372;2023-02-04T07:09:54;94267.09;;;3.74;70.99
6136;BME280;24008;42.664;23.372;2023-02-04T07:12:21;94056.16;;;3.11;71.06
6136;BME280;24008;42.664;23.372;2023-02-04T07:14:48;94264.00;;;5.36;68.26
6136;BME280;24008;42.664;23.372;2023-02-04T07:17:16;94264.25;;;6.27;63.12
6136;BME280;24008;42.664;23.372;2023-02-04T07:19:42;94237.84;;;6.89;61.84
6136;BME280;24008;42.664;23.372;2023-02-04T07:22:09;94269.63;;;7.62;57.68
6136;BME280;24008;42.664;23.372;2023-02-04T07:24:36;94269.34;;;8.04;57.23
6136;BME280;24008;42.664;23.372;2023-02-04T07:27:03;94255.47;;;8.25;54.81
6136;BME280;24008;42.664;23.372;2023-02-04T07:29:29;94245.94;;;8.47;53.98
6136;BME280;24008;42.664;23.372;2023-02-04T07:31:56;94207.56;;;8.21;53.86
6136;BME280;24008;42.664;23.372;2023-02-04T07:34:24;94236.94;;;9.25;52.28
6136;BME280;24008;42.664;23.372;2023-02-04T07:36:51;94248.56;;;10.42;49.71
6136;BME280;24008;42.664;23.372;2023-02-04T07:39:18;94221.44;;;10.83;46.48
6136;BME280;24008;42.664;23.372;2023-02-04T07:41:44;94214.06;;;10.38;47.80
6136;BME280;24008;42.664;23.372;2023-02-04T07:44:11;94256.09;;;11.28;46.08
6136;BME280;24008;42.664;23.372;2023-02-04T07:46:38;94222.38;;;11.32;45.59
6136;BME280;24008;42.664;23.372;2023-02-04T07:49:06;94272.50;;;12.00;43.75
6136;BME280;24008;42.664;23.372;2023-02-04T07:51:34;94259.50;;;11.52;44.25
6136;BME280;24008;42.664;23.372;2023-02-04T07:54:01;94200.19;;;10.91;44.44
6136;BME280;24008;42.664;23.372;2023-02-04T07:56:28;94253.75;;;11.59;44.16
6136;BME280;24008;42.664;23.372;2023-02-04T07:58:54;94250.91;;;12.18;42.76
6136;BME280;24008;42.664;23.372;2023-02-04T08:01:21;94199.19;;;12.15;42.38
6136;BME280;24008;42.664;23.372;2023-02-04T08:03:48;94250.94;;;12.74;41.38
6136;BME280;24008;42.664;23.372;2023-02-04T08:06:15;94246.84;;;12.40;41.61
6136;BME280;24008;42.664;23.372;2023-02-04T08:08:43;94250.53;;;11.73;42.31
6136;BME280;24008;42.664;23.372;2023-02-04T08:11:09;94140.59;;;9.80;44.40
6136;BME280;24008;42.664;23.372;2023-02-04T08:13:39;94260.41;;;9.46;46.21
6136;BME280;24008;42.664;23.372;2023-02-04T08:16:06;94271.53;;;8.45;49.27
6136;BME280;24008;42.664;23.372;2023-02-04T08:18:33;94269.66;;;7.72;51.61
6136;BME280;24008;42.664;23.372;2023-02-04T08:20:59;94233.31;;;7.02;53.81
6136;BME280;24008;42.664;23.372;2023-02-04T08:23:29;94266.09;;;7.05;54.24
6136;BME280;24008;42.664;23.372;2023-02-04T08:25:58;94261.94;;;6.95;54.87
6136;BME280;24008;42.664;23.372;2023-02-04T08:28:26;94220.00;;;6.50;55.63
6136;BME280;24008;42.664;23.372;2023-02-04T08:30:57;94256.19;;;6.53;56.60
6136;BME280;24008;42.664;23.372;2023-02-04T08:33:26;94075.19;;;5.21;57.84
6136;BME280;24008;42.664;23.372;2023-02-04T08:35:59;94253.44;;;6.35;58.28
6136;BME280;24008;42.664;23.372;2023-02-04T08:38:27;94255.31;;;6.33;58.07
6136;BME280;24008;42.664;23.372;2023-02-04T08:40:58;94247.81;;;6.31;58.40
6136;BME280;24008;42.664;23.372;2023-02-04T08:43:31;94250.34;;;6.31;59.26
6136;BME280;24008;42.664;23.372;2023-02-04T08:45:59;94248.25;;;6.36;59.12
6136;BME280;24008;42.664;23.372;2023-02-04T08:48:26;94206.72;;;6.07;58.87
6136;BME280;24008;42.664;23.372;2023-02-04T08:50:53;94218.28;;;6.00;59.34
6136;BME280;24008;42.664;23.372;2023-02-04T08:53:20;94254.50;;;6.02;60.11
6136;BME280;24008;42.664;23.372;2023-02-04T08:55:46;94275.78;;;5.90;60.98
6136;BME280;24008;42.664;23.372;2023-02-04T08:58:15;94261.25;;;5.80;61.89
6136;BME280;24008;42.664;23.372;2023-02-04T09:00:41;94229.09;;;5.60;62.40
6136;BME280;24008;42.664;23.372;2023-02-04T09:03:08;94142.31;;;5.05;62.48
6136;BME280;24008;42.664;23.372;2023-02-04T09:05:35;94236.22;;;5.66;63.02
6136;BME280;24008;42.664;23.372;2023-02-04T09:08:02;94225.41;;;5.64;62.59
6136;BME280;24008;42.664;23.372;2023-02-04T09:10:28;94138.34;;;5.13;62.51
6136;BME280;24008;42.664;23.372;2023-02-04T09:12:55;94194.59;;;5.48;62.47
6136;BME280;24008;42.664;23.372;2023-02-04T09:15:24;94123.88;;;5.03;62.90
6136;BME280;24008;42.664;23.372;2023-02-04T09:17:51;94218.72;;;5.63;62.34
6136;BME280;24008;42.664;23.372;2023-02-04T09:20:25;94136.00;;;5.21;62.25
6136;BME280;24008;42.664;23.372;2023-02-04T09:22:53;94177.03;;;5.56;61.72
6136;BME280;24008;42.664;23.372;2023-02-04T09:25:20;94225.91;;;6.00;61.79
6136;BME280;24008;42.664;23.372;2023-02-04T09:27:47;94232.84;;;5.98;60.83
6136;BME280;24008;42.664;23.372;2023-02-04T09:30:14;94199.28;;;5.73;60.15
6136;BME280;24008;42.664;23.372;2023-02-04T09:32:42;94190.06;;;5.72;59.88
6136;BME280;24008;42.664;23.372;2023-02-04T09:35:10;94132.91;;;5.38;60.02
6136;BME280;24008;42.664;23.372;2023-02-04T09:37:37;94157.56;;;5.57;60.05
6136;BME280;24008;42.664;23.372;2023-02-04T09:40:04;94210.56;;;6.01;60.89
6136;BME280;24008;42.664;23.372;2023-02-04T09:42:31;94136.63;;;5.34;60.97
6136;BME280;24008;42.664;23.372;2023-02-04T09:44:58;94090.09;;;4.93;62.51
6136;BME280;24008;42.664;23.372;2023-02-04T09:47:28;94190.03;;;5.42;64.50
6136;BME280;24008;42.664;23.372;2023-02-04T09:49:56;94233.88;;;5.54;66.18
6136;BME280;24008;42.664;23.372;2023-02-04T09:52:24;94230.59;;;5.42;67.86
6136;BME280;24008;42.664;23.372;2023-02-04T09:54:53;94147.75;;;4.90;68.42
6136;BME280;24008;42.664;23.372;2023-02-04T09:57:20;94224.41;;;5.24;68.72
6136;BME280;24008;42.664;23.372;2023-02-04T09:59:46;94218.59;;;5.12;71.18
6136;BME280;24008;42.664;23.372;2023-02-04T10:02:23;94073.41;;;4.27;71.64
6136;BME280;24008;42.664;23.372;2023-02-04T10:04:51;94211.25;;;4.98;72.38
6136;BME280;24008;42.664;23.372;2023-02-04T10:07:23;94096.53;;;4.33;73.57
6136;BME280;24008;42.664;23.372;2023-02-04T10:09:52;94212.06;;;4.98;73.34
6136;BME280;24008;42.664;23.372;2023-02-04T10:12:19;94144.75;;;4.64;73.05
6136;BME280;24008;42.664;23.372;2023-02-04T10:14:47;94184.81;;;4.91;72.88
6136;BME280;24008;42.664;23.372;2023-02-04T10:17:19;94127.22;;;4.72;72.87
6136;BME280;24008;42.664;23.372;2023-02-04T10:19:46;94187.84;;;5.17;71.82
6136;BME280;24008;42.664;23.372;2023-02-04T10:22:18;94078.97;;;4.53;71.90
6136;BME280;24008;42.664;23.372;2023-02-04T10:24:47;94138.16;;;5.04;71.09
6136;BME280;24008;42.664;23.372;2023-02-04T10:27:14;94156.06;;;5.13;70.81
6136;BME280;24008;42.664;23.372;2023-02-04T10:29:42;94184.34;;;5.29;71.54
6136;BME280;24008;42.664;23.372;2023-02-04T10:32:27;94204.84;;;5.26;70.77
6136;BME280;24008;42.664;23.372;2023-02-04T10:34:58;94177.66;;;5.28;71.83
6136;BME280;24008;42.664;23.372;2023-02-04T10:37:26;94011.63;;;4.41;70.90
6136;BME280;24008;42.664;23.372;2023-02-04T10:39:55;94100.34;;;5.13;70.37
6136;BME280;24008;42.664;23.372;2023-02-04T10:42:23;94188.97;;;5.65;69.26
6136;BME280;24008;42.664;23.372;2023-02-04T10:44:51;94140.69;;;5.46;70.04
6136;BME280;24008;42.664;23.372;2023-02-04T10:47:19;94075.94;;;5.12;71.38
6136;BME280;24008;42.664;23.372;2023-02-04T10:49:54;94167.41;;;5.50;72.83
6136;BME280;24008;42.664;23.372;2023-02-04T10:52:25;94168.38;;;5.38;73.54
6136;BME280;24008;42.664;23.372;2023-02-04T10:54:57;94129.00;;;5.13;74.36
6136;BME280;24008;42.664;23.372;2023-02-04T10:57:27;94126.66;;;5.00;75.35
6136;BME280;24008;42.664;23.372;2023-02-04T10:59:57;94137.03;;;4.97;76.87
6136;BME280;24008;42.664;23.372;2023-02-04T11:02:35;94165.91;;;5.27;77.05
6136;BME280;24008;42.664;23.372;2023-02-04T11:05:05;94148.47;;;5.33;76.21
6136;BME280;24008;42.664;23.372;2023-02-04T11:07:36;94072.53;;;4.81;76.28
6136;BME280;24008;42.664;23.372;2023-02-04T11:10:05;94061.91;;;4.87;76.53
6136;BME280;24008;42.664;23.372;2023-02-04T11:12:37;94154.84;;;5.49;76.47
6136;BME280;24008;42.664;23.372;2023-02-04T11:15:06;93968.00;;;4.27;75.95
6136;BME280;24008;42.664;23.372;2023-02-04T11:18:01;94148.84;;;5.50;75.24
6136;BME280;24008;42.664;23.372;2023-02-04T11:20:30;94139.31;;;5.63;74.37
6136;BME280;24008;42.664;23.372;2023-02-04T11:23:13;94122.81;;;5.48;73.61
6136;BME280;24008;42.664;23.372;2023-02-04T11:25:42;94082.03;;;5.51;73.65
6136;BME280;24008;42.664;23.372;2023-02-04T11:28:23;94108.69;;;5.75;72.14
6136;BME280;24008;42.664;23.372;2023-02-04T11:30:58;94112.59;;;5.79;70.99
6136;BME280;24008;42.664;23.372;2023-02-04T11:33:36;94094.41;;;5.74;71.20
6136;BME280;24008;42.664;23.372;2023-02-04T11:36:05;94154.88;;;6.00;71.46
6136;BME280;24008;42.664;23.372;2023-02-04T11:38:33;94125.84;;;5.62;71.97
6136;BME280;24008;42.664;23.372;2023-02-04T11:41:01;94040.91;;;4.96;72.37
6136;BME280;24008;42.664;23.372;2023-02-04T11:43:32;94117.94;;;5.35;72.70
6136;BME280;24008;42.664;23.372;2023-02-04T11:46:01;94076.25;;;4.97;72.81
6136;BME280;24008;42.664;23.372;2023-02-04T11:48:29;94156.28;;;5.41;73.85
6136;BME280;24008;42.664;23.372;2023-02-04T11:51:10;94092.63;;;4.93;74.52
6136;BME280;24008;42.664;23.372;2023-02-04T11:53:38;94158.81;;;5.41;75.67
6136;BME280;24008;42.664;23.372;2023-02-04T11:56:06;94150.59;;;5.49;76.04
6136;BME280;24008;42.664;23.372;2023-02-04T11:58:33;94152.44;;;5.47;76.55
6136;BME280;24008;42.664;23.372;2023-02-04T12:00:59;94019.34;;;4.60;75.82
6136;BME280;24008;42.664;23.372;2023-02-04T12:03:27;94147.25;;;5.28;74.87
6136;BME280;24008;42.664;23.372;2023-02-04T12:05:55;94146.88;;;5.32;75.32
6136;BME280;24008;42.664;23.372;2023-02-04T12:08:30;94140.88;;;5.33;75.65
6136;BME280;24008;42.664;23.372;2023-02-04T12:11:04;94054.94;;;4.79;75.15
6136;BME280;24008;42.664;23.372;2023-02-04T12:13:33;94142.44;;;5.25;76.02
6136;BME280;24008;42.664;23.372;2023-02-04T12:16:11;94130.69;;;5.03;77.37
6136;BME280;24008;42.664;23.372;2023-02-04T12:18:38;94135.47;;;4.85;78.20
6136;BME280;24008;42.664;23.372;2023-02-04T12:21:05;93992.50;;;3.84;79.52
6136;BME280;24008;42.664;23.372;2023-02-04T12:23:32;94115.56;;;4.49;79.55
6136;BME280;24008;42.664;23.372;2023-02-04T12:25:59;94129.66;;;4.62;80.90
6136;BME280;24008;42.664;23.372;2023-02-04T12:28:25;94104.13;;;4.33;82.17
6136;BME280;24008;42.664;23.372;2023-02-04T12:30:54;94130.72;;;4.60;83.42
6136;BME280;24008;42.664;23.372;2023-02-04T12:33:21;94093.44;;;4.30;83.12
6136;BME280;24008;42.664;23.372;2023-02-04T12:35:48;94113.53;;;4.43;83.41
6136;BME280;24008;42.664;23.372;2023-02-04T12:38:15;94125.34;;;4.53;84.02
6136;BME280;24008;42.664;23.372;2023-02-04T12:40:42;93988.41;;;3.72;83.86
6136;BME280;24008;42.664;23.372;2023-02-04T12:43:08;94080.91;;;4.28;84.55
6136;BME280;24008;42.664;23.372;2023-02-04T12:45:35;94116.47;;;4.48;83.60
6136;BME280;24008;42.664;23.372;2023-02-04T12:48:05;94122.72;;;4.44;83.29
6136;BME280;24008;42.664;23.372;2023-02-04T12:50:32;94042.81;;;3.98;84.08
6136;BME280;24008;42.664;23.372;2023-02-04T12:52:59;94122.34;;;4.48;83.48
6136;BME280;24008;42.664;23.372;2023-02-04T12:55:27;94129.59;;;4.53;82.70
6136;BME280;24008;42.664;23.372;2023-02-04T12:57:54;94064.59;;;4.21;82.21
6136;BME280;24008;42.664;23.372;2023-02-04T13:00:22;94033.69;;;4.18;80.88
6136;BME280;24008;42.664;23.372;2023-02-04T13:02:49;93930.59;;;3.35;79.36
6136;BME280;24008;42.664;23.372;2023-02-04T13:05:17;94022.09;;;4.04;77.27
6136;BME280;24008;42.664;23.372;2023-02-04T13:07:44;94127.09;;;4.74;76.72
6136;BME280;24008;42.664;23.372;2023-02-04T13:10:12;94118.66;;;4.84;76.80
6136;BME280;24008;42.664;23.372;2023-02-04T13:12:40;94129.03;;;4.81;76.02
6136;BME280;24008;42.664;23.372;2023-02-04T13:15:07;94080.91;;;4.60;75.44